Time;durP1;ratioP1;P1;durP2;ratioP2;P2;SDS_P1;SDS_P2;PMS_P1;PMS_P2;Temp;Humidity;BMP_temperature;BMP_pressure;BME280_temperature;BME280_humidity;BME280_pressure;Samples;Min_cycle;Max_cycle;Signal;HPM_P1;HPM_P2
2021/06/11 00:01:40;;;;;;;;;;;18.20;99.90;;;;;;5135585;27;19949;-74
2021/06/11 00:04:05;;;;;;;;;;;18.10;99.90;;;;;;5135361;27;19917;-74
2021/06/11 00:06:31;;;;;;;;;;;18.10;99.90;;;;;;5135034;27;19904;-73
2021/06/11 00:08:57;;;;;;;;;;;18.00;99.90;;;;;;5135460;27;19910;-74
2021/06/11 00:11:23;;;;;;;;;;;18.00;99.90;;;;;;5135531;27;19911;-74
2021/06/11 00:13:48;;;;;;;;;;;17.90;99.90;;;;;;5134567;27;19914;-74
2021/06/11 00:16:14;;;;;;;;;;;17.90;99.90;;;;;;5135587;27;19948;-74
2021/06/11 00:18:39;;;;;;;;;;;17.90;99.90;;;;;;5135145;27;20007;-75
2021/06/11 00:21:04;;;;;;;;;;;17.80;99.90;;;;;;5134498;27;19903;-75
2021/06/11 00:23:30;;;;;;;;;;;17.80;99.90;;;;;;5135058;27;19939;-74
2021/06/11 00:25:55;;;;;;;;;;;17.70;99.90;;;;;;5135281;27;19947;-74
2021/06/11 00:28:21;;;;;;;;;;;17.70;99.90;;;;;;5134312;27;19946;-75
2021/06/11 00:30:47;;;;;;;;;;;17.70;99.90;;;;;;5135068;27;19904;-75
2021/06/11 00:33:12;;;;;;;;;;;17.70;99.90;;;;;;5134211;27;20347;-75
2021/06/11 00:35:38;;;;;;;;;;;17.70;99.90;;;;;;5134819;27;19907;-74
2021/06/11 00:38:04;;;;;;;;;;;17.70;99.90;;;;;;5135174;27;19950;-74
2021/06/11 00:40:29;;;;;;;;;;;17.60;99.90;;;;;;5134030;27;19947;-74
2021/06/11 00:42:55;;;;;;;;;;;17.70;99.90;;;;;;5135250;27;19903;-74
2021/06/11 00:45:21;;;;;;;;;;;17.70;99.90;;;;;;5135131;27;20415;-74
2021/06/11 00:47:46;;;;;;;;;;;17.70;99.90;;;;;;5133657;27;20333;-74
2021/06/11 00:50:12;;;;;;;;;;;17.60;99.90;;;;;;5134440;27;19903;-75
2021/06/11 00:52:39;;;;;;;;;;;17.70;99.90;;;;;;5134324;27;19919;-74
2021/06/11 00:55:05;;;;;;;;;;;17.60;99.90;;;;;;5134111;27;19903;-74
2021/06/11 00:57:31;;;;;;;;;;;17.60;99.90;;;;;;5135062;27;20001;-73
2021/06/11 00:59:57;;;;;;;;;;;17.60;99.90;;;;;;5134526;27;19903;-74
2021/06/11 01:02:22;;;;;;;;;;;17.50;99.90;;;;;;5134037;27;20016;-74
2021/06/11 01:04:49;;;;;;;;;;;17.50;99.90;;;;;;5134633;27;19914;-75
2021/06/11 01:07:15;;;;;;;;;;;17.50;99.90;;;;;;5134397;27;19907;-74
2021/06/11 01:09:41;;;;;;;;;;;17.40;99.90;;;;;;5139217;27;20260;-74
2021/06/11 01:12:07;;;;;;;;;;;17.50;99.90;;;;;;5135715;27;20273;-74
2021/06/11 01:14:33;;;;;;;;;;;17.50;99.90;;;;;;5134136;27;19903;-74
2021/06/11 01:16:58;;;;;;;;;;;17.40;99.90;;;;;;5133622;27;19914;-73
2021/06/11 01:19:29;;;;;;;;;;;17.40;99.90;;;;;;5136379;27;19904;-74
2021/06/11 01:22:05;;;;;;;;;;;17.40;99.90;;;;;;5135574;27;19989;-74
2021/06/11 01:24:32;;;;;;;;;;;17.30;99.90;;;;;;5138652;27;19903;-74
2021/06/11 01:26:58;;;;;;;;;;;17.30;99.90;;;;;;5138367;27;19907;-74
2021/06/11 01:29:28;;;;;;;;;;;17.30;99.90;;;;;;5134027;27;20376;-75
2021/06/11 01:31:56;;;;;;;;;;;17.30;99.90;;;;;;5134357;27;19964;-75
2021/06/11 01:34:26;;;;;;;;;;;17.30;99.90;;;;;;5134233;27;19903;-75
2021/06/11 01:36:57;;;;;;;;;;;17.30;99.90;;;;;;5133506;28;19903;-75
2021/06/11 01:39:22;;;;;;;;;;;17.30;99.90;;;;;;5134076;28;20005;-75
2021/06/11 01:41:50;;;;;;;;;;;17.30;99.90;;;;;;5133977;28;19955;-75
2021/06/11 01:44:16;;;;;;;;;;;17.30;99.90;;;;;;5133274;28;19904;-74
2021/06/11 01:46:43;;;;;;;;;;;17.20;99.90;;;;;;5134262;28;19908;-74
2021/06/11 01:49:08;;;;;;;;;;;17.20;99.90;;;;;;5134056;28;20385;-74
2021/06/11 01:51:36;;;;;;;;;;;17.20;99.90;;;;;;5132999;28;20057;-74
2021/06/11 01:54:02;;;;;;;;;;;17.20;99.90;;;;;;5133987;28;19918;-75
2021/06/11 01:56:28;;;;;;;;;;;17.10;99.90;;;;;;5134184;28;19904;-74
2021/06/11 01:58:54;;;;;;;;;;;17.10;99.90;;;;;;5135514;27;20359;-75
2021/06/11 02:01:21;;;;;;;;;;;17.10;99.90;;;;;;5139137;27;20294;-75
2021/06/11 02:03:47;;;;;;;;;;;17.10;99.90;;;;;;5138006;27;19910;-75
2021/06/11 02:06:16;;;;;;;;;;;17.10;99.90;;;;;;5137203;27;20248;-75
2021/06/11 02:08:42;;;;;;;;;;;17.10;99.90;;;;;;5137873;27;19914;-74
2021/06/11 02:11:08;;;;;;;;;;;17.10;99.90;;;;;;5137422;27;19908;-74
2021/06/11 02:13:34;;;;;;;;;;;17.10;99.90;;;;;;5137065;27;19918;-73
2021/06/11 02:16:02;;;;;;;;;;;17.00;99.90;;;;;;5137855;27;20006;-75
2021/06/11 02:18:27;;;;;;;;;;;17.00;99.90;;;;;;5137439;27;19910;-75
2021/06/11 02:20:53;;;;;;;;;;;17.00;99.90;;;;;;5137246;27;19990;-75
2021/06/11 02:23:19;;;;;;;;;;;16.90;99.90;;;;;;5138054;27;20266;-74
2021/06/11 02:25:44;;;;;;;;;;;16.90;99.90;;;;;;5136734;27;20340;-74
2021/06/11 02:28:13;;;;;;;;;;;16.80;99.90;;;;;;5138068;27;19909;-75
2021/06/11 02:30:39;;;;;;;;;;;16.80;99.90;;;;;;5137371;27;19904;-74
2021/06/11 02:33:05;;;;;;;;;;;16.80;99.90;;;;;;5136505;27;19933;-74
2021/06/11 02:35:30;;;;;;;;;;;16.80;99.90;;;;;;5137484;27;19948;-74
2021/06/11 02:37:58;;;;;;;;;;;16.80;99.90;;;;;;5137216;27;19903;-74
2021/06/11 02:40:23;;;;;;;;;;;16.80;99.90;;;;;;5136531;27;20005;-75
2021/06/11 02:42:53;;;;;;;;;;;16.80;99.90;;;;;;5136985;27;19942;-73
2021/06/11 02:45:21;;;;;;;;;;;16.80;99.90;;;;;;5137187;27;19907;-74
2021/06/11 02:47:52;;;;;;;;;;;16.80;99.90;;;;;;5136487;27;19948;-74
2021/06/11 02:50:20;;;;;;;;;;;16.80;99.90;;;;;;5137117;27;19938;-73
2021/06/11 02:52:53;;;;;;;;;;;16.80;99.90;;;;;;5137102;27;19922;-74
2021/06/11 02:55:21;;;;;;;;;;;16.80;99.90;;;;;;5136164;27;19907;-74
2021/06/11 02:58:13;;;;;;;;;;;16.80;99.90;;;;;;5136977;27;19910;-73
2021/06/11 03:00:40;;;;;;;;;;;16.80;99.90;;;;;;5131468;27;19939;-74
2021/06/11 03:03:12;;;;;;;;;;;16.90;99.90;;;;;;5136158;27;20347;-75
2021/06/11 03:05:38;;;;;;;;;;;16.90;99.90;;;;;;5136674;27;20263;-74
2021/06/11 03:08:07;;;;;;;;;;;16.80;99.90;;;;;;5135763;27;19915;-73
2021/06/11 03:10:33;;;;;;;;;;;16.80;99.90;;;;;;5135888;27;19986;-74
2021/06/11 03:13:00;;;;;;;;;;;16.90;99.90;;;;;;5136235;27;20398;-74
2021/06/11 03:15:29;;;;;;;;;;;16.90;99.90;;;;;;5135748;27;19961;-74
2021/06/11 03:18:01;;;;;;;;;;;17.00;99.90;;;;;;5141196;27;20011;-74
2021/06/11 03:20:28;;;;;;;;;;;16.90;99.90;;;;;;5138010;27;20419;-75
2021/06/11 03:22:54;;;;;;;;;;;16.90;99.90;;;;;;5135420;27;19982;-75
2021/06/11 03:25:25;;;;;;;;;;;16.90;99.90;;;;;;5135290;27;20324;-74
2021/06/11 03:27:52;;;;;;;;;;;16.90;99.90;;;;;;5137936;27;20278;-74
2021/06/11 03:30:20;;;;;;;;;;;16.90;99.90;;;;;;5137091;27;19907;-75
2021/06/11 03:32:48;;;;;;;;;;;16.90;99.90;;;;;;5140259;27;19915;-74
2021/06/11 03:35:19;;;;;;;;;;;16.80;99.90;;;;;;5139923;27;19903;-74
2021/06/11 03:37:45;;;;;;;;;;;16.90;99.90;;;;;;5135341;27;19903;-74
2021/06/11 03:40:12;;;;;;;;;;;16.80;99.90;;;;;;5136122;27;20266;-73
2021/06/11 03:42:37;;;;;;;;;;;16.90;99.90;;;;;;5135781;27;19903;-75
2021/06/11 03:45:03;;;;;;;;;;;16.90;99.90;;;;;;5134873;27;19910;-75
2021/06/11 03:47:31;;;;;;;;;;;17.00;99.90;;;;;;5135188;27;19903;-75
2021/06/11 03:49:57;;;;;;;;;;;17.00;99.90;;;;;;5135851;27;19903;-75
2021/06/11 03:52:24;;;;;;;;;;;17.00;99.90;;;;;;5134648;27;19916;-75
2021/06/11 03:54:51;;;;;;;;;;;17.00;99.90;;;;;;5135993;27;19998;-74
2021/06/11 03:57:17;;;;;;;;;;;17.00;99.90;;;;;;5135071;27;19934;-74
2021/06/11 03:59:44;;;;;;;;;;;17.00;99.90;;;;;;5135744;27;20263;-75
2021/06/11 04:02:10;;;;;;;;;;;17.00;99.90;;;;;;5135407;27;20355;-74
2021/06/11 04:04:35;;;;;;;;;;;17.10;99.90;;;;;;5135004;27;19903;-74
2021/06/11 04:07:10;;;;;;;;;;;17.00;99.90;;;;;;5135473;27;20002;-74
2021/06/11 04:09:46;;;;;;;;;;;17.00;99.90;;;;;;5135404;27;20236;-74
2021/06/11 04:12:17;;;;;;;;;;;17.10;99.90;;;;;;5134505;27;19911;-74
2021/06/11 04:14:44;;;;;;;;;;;17.10;99.90;;;;;;5116802;27;19903;-73
2021/06/11 04:17:11;;;;;;;;;;;17.10;99.90;;;;;;5135216;27;19903;-74
2021/06/11 04:19:39;;;;;;;;;;;17.20;99.90;;;;;;5134656;27;19914;-74
2021/06/11 04:22:05;;;;;;;;;;;17.20;99.90;;;;;;5134318;27;19904;-74
2021/06/11 04:24:31;;;;;;;;;;;17.20;99.90;;;;;;5134972;27;20376;-74
2021/06/11 04:26:57;;;;;;;;;;;17.30;99.90;;;;;;5134594;27;19903;-74
2021/06/11 04:29:23;;;;;;;;;;;17.20;99.90;;;;;;5135440;27;19963;-74
2021/06/11 04:31:51;;;;;;;;;;;17.30;99.90;;;;;;5135030;27;20299;-74
2021/06/11 04:34:16;;;;;;;;;;;17.30;99.90;;;;;;5134414;27;20301;-74
2021/06/11 04:36:43;;;;;;;;;;;17.30;99.90;;;;;;5134815;27;19903;-74
2021/06/11 04:39:09;;;;;;;;;;;17.30;99.90;;;;;;5135083;27;20382;-74
2021/06/11 04:41:34;;;;;;;;;;;17.30;99.90;;;;;;5134243;27;19998;-74
2021/06/11 04:44:00;;;;;;;;;;;17.40;99.90;;;;;;5134428;27;19909;-75
2021/06/11 04:46:26;;;;;;;;;;;17.40;99.90;;;;;;5133951;27;20377;-74
2021/06/11 04:48:52;;;;;;;;;;;17.40;99.90;;;;;;5134655;27;19904;-74
2021/06/11 04:51:17;;;;;;;;;;;17.50;99.90;;;;;;5134584;27;19931;-74
2021/06/11 04:53:43;;;;;;;;;;;17.60;99.90;;;;;;5133595;27;20042;-74
2021/06/11 04:56:08;;;;;;;;;;;17.60;99.90;;;;;;5134430;27;19911;-74
2021/06/11 04:58:38;;;;;;;;;;;17.60;99.90;;;;;;5134404;27;19910;-74
2021/06/11 05:01:04;;;;;;;;;;;17.70;99.90;;;;;;5134069;27;19903;-74
2021/06/11 05:03:29;;;;;;;;;;;17.80;99.90;;;;;;5134176;27;20345;-74
2021/06/11 05:05:55;;;;;;;;;;;17.70;99.90;;;;;;5134569;27;19909;-74
2021/06/11 05:08:20;;;;;;;;;;;17.90;99.90;;;;;;5133532;27;19904;-74
2021/06/11 05:10:46;;;;;;;;;;;17.90;99.90;;;;;;5134322;27;19903;-74
2021/06/11 05:13:11;;;;;;;;;;;17.80;99.90;;;;;;5134429;27;19918;-74
2021/06/11 05:15:37;;;;;;;;;;;17.80;99.90;;;;;;5133516;27;20023;-74
2021/06/11 05:18:05;;;;;;;;;;;17.80;99.90;;;;;;5134476;27;19918;-74
2021/06/11 05:20:32;;;;;;;;;;;17.70;99.90;;;;;;5134188;27;19904;-75
2021/06/11 05:22:57;;;;;;;;;;;17.70;99.90;;;;;;5133390;27;19903;-74
2021/06/11 05:25:23;;;;;;;;;;;17.70;99.90;;;;;;5136956;27;19961;-74
2021/06/11 05:27:48;;;;;;;;;;;17.70;99.90;;;;;;5137395;27;20339;-74
2021/06/11 05:30:14;;;;;;;;;;;17.70;99.90;;;;;;5133616;27;19917;-75
2021/06/11 05:32:39;;;;;;;;;;;17.80;99.90;;;;;;5133798;27;20375;-74
2021/06/11 05:35:05;;;;;;;;;;;17.80;99.90;;;;;;5134352;27;19909;-75
2021/06/11 05:37:30;;;;;;;;;;;17.80;99.90;;;;;;5136565;28;20373;-75
2021/06/11 05:39:56;;;;;;;;;;;17.90;99.90;;;;;;5134091;28;20003;-74
2021/06/11 05:42:21;;;;;;;;;;;18.00;99.90;;;;;;5140275;28;20002;-76
2021/06/11 05:44:47;;;;;;;;;;;18.00;99.90;;;;;;5134031;28;20323;-75
2021/06/11 05:47:12;;;;;;;;;;;18.10;99.90;;;;;;5133771;28;19903;-74
2021/06/11 05:49:38;;;;;;;;;;;18.10;99.90;;;;;;5133972;28;19907;-75
2021/06/11 05:52:04;;;;;;;;;;;18.20;99.90;;;;;;5132958;28;19920;-75
2021/06/11 05:54:29;;;;;;;;;;;18.30;99.90;;;;;;5133907;28;20035;-75
2021/06/11 05:56:58;;;;;;;;;;;18.30;99.90;;;;;;5132939;28;19911;-75
2021/06/11 05:59:23;;;;;;;;;;;18.40;99.90;;;;;;5133757;28;19907;-74
2021/06/11 06:01:49;;;;;;;;;;;18.50;99.90;;;;;;5133451;28;19904;-74
2021/06/11 06:04:14;;;;;;;;;;;18.60;99.90;;;;;;5132973;28;19903;-74
2021/06/11 06:06:40;;;;;;;;;;;18.70;99.90;;;;;;5133870;28;20347;-74
2021/06/11 06:09:05;;;;;;;;;;;18.80;99.90;;;;;;5133827;28;19941;-75
2021/06/11 06:11:31;;;;;;;;;;;18.90;99.90;;;;;;5133109;28;19911;-75
2021/06/11 06:13:56;;;;;;;;;;;19.10;99.90;;;;;;5133795;28;20005;-75
2021/06/11 06:16:22;;;;;;;;;;;19.10;99.90;;;;;;5133714;28;19904;-75
2021/06/11 06:18:47;;;;;;;;;;;19.20;99.90;;;;;;5133247;28;20356;-75
2021/06/11 06:21:13;;;;;;;;;;;19.10;99.90;;;;;;5134111;28;19903;-76
2021/06/11 06:23:39;;;;;;;;;;;19.10;99.90;;;;;;5134020;28;19958;-74
2021/06/11 06:26:04;;;;;;;;;;;19.60;99.90;;;;;;5133091;28;19903;-76
2021/06/11 06:28:30;;;;;;;;;;;19.10;99.90;;;;;;5133632;28;19904;-75
2021/06/11 06:30:55;;;;;;;;;;;19.10;99.90;;;;;;5133555;28;19994;-74
2021/06/11 06:33:21;;;;;;;;;;;19.20;99.90;;;;;;5132560;28;19951;-75
2021/06/11 06:35:46;;;;;;;;;;;19.20;99.90;;;;;;5133497;28;19910;-75
2021/06/11 06:38:13;;;;;;;;;;;19.30;99.90;;;;;;5133577;28;19948;-74
2021/06/11 06:40:39;;;;;;;;;;;19.40;99.90;;;;;;5132749;28;20247;-74
2021/06/11 06:43:05;;;;;;;;;;;19.50;99.90;;;;;;5133209;28;19904;-75
2021/06/11 06:45:30;;;;;;;;;;;19.60;99.90;;;;;;5135566;27;19948;-76
2021/06/11 06:47:56;;;;;;;;;;;19.70;99.90;;;;;;5136307;27;19911;-75
2021/06/11 06:50:21;;;;;;;;;;;19.90;99.90;;;;;;5136909;27;20355;-75
2021/06/11 06:52:52;;;;;;;;;;;20.00;99.90;;;;;;5136856;27;20018;-75
2021/06/11 06:55:18;;;;;;;;;;;20.10;99.90;;;;;;5136113;27;19960;-74
2021/06/11 06:57:43;;;;;;;;;;;20.10;99.90;;;;;;5136714;27;19904;-75
2021/06/11 07:00:09;;;;;;;;;;;20.20;99.90;;;;;;5136165;27;19903;-74
2021/06/11 07:02:36;;;;;;;;;;;20.30;99.90;;;;;;5137080;27;19909;-75
2021/06/11 07:05:04;;;;;;;;;;;20.40;99.90;;;;;;5136905;27;19947;-74
2021/06/11 07:07:33;;;;;;;;;;;20.50;99.90;;;;;;5135847;27;19903;-75
2021/06/11 07:09:58;;;;;;;;;;;20.70;99.90;;;;;;5136576;27;20346;-75
2021/06/11 07:12:26;;;;;;;;;;;20.70;99.90;;;;;;5136552;27;19964;-77
2021/06/11 07:14:52;;;;;;;;;;;20.80;99.90;;;;;;5135923;27;20311;-76
2021/06/11 07:17:17;;;;;;;;;;;20.80;99.90;;;;;;5136476;27;19907;-75
2021/06/11 07:19:43;;;;;;;;;;;20.90;99.90;;;;;;5136717;27;19908;-76
2021/06/11 07:22:10;;;;;;;;;;;21.00;99.90;;;;;;5135570;27;19994;-75
2021/06/11 07:24:37;;;;;;;;;;;21.10;99.90;;;;;;5136354;27;19910;-75
2021/06/11 07:27:02;;;;;;;;;;;21.20;99.90;;;;;;5136409;27;20320;-75
2021/06/11 07:29:28;;;;;;;;;;;21.20;99.90;;;;;;5135333;27;19921;-76
2021/06/11 07:31:53;;;;;;;;;;;21.30;99.90;;;;;;5136055;27;19911;-76
2021/06/11 07:34:19;;;;;;;;;;;21.30;99.90;;;;;;5138938;27;19986;-74
2021/06/11 07:36:46;;;;;;;;;;;21.30;99.90;;;;;;5137551;27;19907;-74
2021/06/11 07:39:11;;;;;;;;;;;21.40;99.90;;;;;;5135883;27;19911;-74
2021/06/11 07:41:36;;;;;;;;;;;21.40;99.90;;;;;;5135545;27;19915;-75
2021/06/11 07:44:02;;;;;;;;;;;21.40;99.90;;;;;;5135468;27;19997;-75
2021/06/11 07:46:27;;;;;;;;;;;21.40;99.90;;;;;;5136366;27;19922;-75
2021/06/11 07:48:53;;;;;;;;;;;21.40;99.90;;;;;;5136213;27;19904;-75
2021/06/11 07:51:21;;;;;;;;;;;21.60;99.90;;;;;;5135865;27;19943;-75
2021/06/11 07:53:47;;;;;;;;;;;21.70;99.90;;;;;;5135869;27;19918;-75
2021/06/11 07:56:12;;;;;;;;;;;21.70;99.90;;;;;;5135658;27;19903;-73
2021/06/11 07:58:38;;;;;;;;;;;21.70;99.90;;;;;;5135203;27;19959;-75
2021/06/11 08:01:04;;;;;;;;;;;21.60;99.90;;;;;;5135473;27;19904;-75
2021/06/11 08:03:29;;;;;;;;;;;21.50;99.90;;;;;;5134848;27;20343;-75
2021/06/11 08:05:57;;;;;;;;;;;21.50;99.90;;;;;;5135549;27;19907;-75
2021/06/11 08:08:23;;;;;;;;;;;21.40;99.90;;;;;;5135608;27;19903;-77
2021/06/11 08:10:49;;;;;;;;;;;21.40;99.90;;;;;;5134577;27;20346;-75
2021/06/11 08:13:14;;;;;;;;;;;21.30;99.90;;;;;;5135249;27;19962;-73
2021/06/11 08:15:40;;;;;;;;;;;21.40;99.90;;;;;;5134941;27;19951;-74
2021/06/11 08:18:05;;;;;;;;;;;21.40;99.90;;;;;;5134178;27;19903;-76
2021/06/11 08:20:31;;;;;;;;;;;21.50;99.90;;;;;;5135244;27;19903;-76
2021/06/11 08:22:56;;;;;;;;;;;21.70;99.90;;;;;;5135244;27;20397;-74
2021/06/11 08:25:26;;;;;;;;;;;21.70;99.90;;;;;;5134517;27;19954;-74
2021/06/11 08:27:52;;;;;;;;;;;21.90;99.90;;;;;;5135207;27;20303;-75
2021/06/11 08:30:18;;;;;;;;;;;22.00;99.90;;;;;;5135176;27;19903;-74
2021/06/11 08:32:43;;;;;;;;;;;22.10;99.90;;;;;;5134425;27;19911;-74
2021/06/11 08:35:09;;;;;;;;;;;22.20;99.90;;;;;;5135040;27;19903;-75
2021/06/11 08:37:34;;;;;;;;;;;22.30;99.90;;;;;;5134883;27;19907;-75
2021/06/11 08:40:02;;;;;;;;;;;22.40;99.90;;;;;;5134115;27;19903;-74
2021/06/11 08:42:30;;;;;;;;;;;22.40;99.90;;;;;;5134949;27;19939;-74
2021/06/11 08:44:56;;;;;;;;;;;22.50;99.90;;;;;;5134682;27;19903;-74
2021/06/11 08:47:23;;;;;;;;;;;22.10;99.90;;;;;;5134149;27;19929;-74
2021/06/11 08:49:48;;;;;;;;;;;22.60;99.90;;;;;;5134787;27;20312;-74
2021/06/11 08:52:13;;;;;;;;;;;22.60;99.90;;;;;;5134486;27;19998;-74
2021/06/11 08:54:39;;;;;;;;;;;22.80;99.90;;;;;;5133833;27;19903;-75
2021/06/11 08:57:05;;;;;;;;;;;22.90;99.90;;;;;;5134642;27;19903;-75
2021/06/11 08:59:30;;;;;;;;;;;22.90;99.90;;;;;;5134651;27;20369;-76
2021/06/11 09:01:56;;;;;;;;;;;22.90;99.90;;;;;;5133896;27;19910;-75
2021/06/11 09:04:40;;;;;;;;;;;22.90;99.90;;;;;;5134511;27;19914;-75
2021/06/11 09:07:19;;;;;;;;;;;22.90;99.90;;;;;;5133097;27;19949;-74
2021/06/11 09:09:51;;;;;;;;;;;22.90;99.90;;;;;;5134421;27;20005;-75
2021/06/11 09:12:36;;;;;;;;;;;22.90;99.90;;;;;;5134235;27;19912;-75
2021/06/11 09:15:05;;;;;;;;;;;23.10;99.90;;;;;;5133924;27;19939;-75
2021/06/11 09:17:41;;;;;;;;;;;23.30;99.90;;;;;;5134530;27;19903;-75
2021/06/11 09:20:06;;;;;;;;;;;23.50;99.90;;;;;;5134416;27;19998;-75
2021/06/11 09:22:48;;;;;;;;;;;23.70;99.90;;;;;;5133759;27;20064;-75
2021/06/11 09:25:41;;;;;;;;;;;23.80;99.90;;;;;;5134303;27;19956;-75
2021/06/11 09:28:08;;;;;;;;;;;24.00;99.90;;;;;;5129661;27;19910;-75
2021/06/11 09:30:37;;;;;;;;;;;24.00;99.90;;;;;;5134255;27;19911;-74
2021/06/11 09:33:04;;;;;;;;;;;24.00;99.90;;;;;;5134480;27;19955;-74
2021/06/11 09:35:39;;;;;;;;;;;24.10;99.90;;;;;;5133313;27;19907;-75
2021/06/11 09:38:15;;;;;;;;;;;24.20;99.90;;;;;;5134076;28;19910;-75
2021/06/11 09:40:42;;;;;;;;;;;24.30;99.90;;;;;;5133822;28;19942;-74
2021/06/11 09:43:08;;;;;;;;;;;24.20;99.90;;;;;;5134636;28;20374;-76
2021/06/11 09:45:33;;;;;;;;;;;24.20;99.90;;;;;;5134560;28;20375;-75
2021/06/11 09:47:59;;;;;;;;;;;24.10;99.90;;;;;;5133811;28;19910;-75
2021/06/11 09:50:36;;;;;;;;;;;24.10;99.90;;;;;;5133351;28;19907;-75
2021/06/11 09:53:02;;;;;;;;;;;24.00;99.90;;;;;;5134843;28;20284;-75
2021/06/11 09:55:49;;;;;;;;;;;23.70;99.90;;;;;;5134750;28;19911;-74
2021/06/11 09:58:21;;;;;;;;;;;23.40;99.90;;;;;;5136884;28;19903;-75
2021/06/11 10:00:57;;;;;;;;;;;23.40;99.90;;;;;;5135297;28;20358;-74
2021/06/11 10:03:30;;;;;;;;;;;23.30;99.90;;;;;;5133512;28;19916;-74
2021/06/11 10:05:56;;;;;;;;;;;23.30;99.90;;;;;;5133981;28;19903;-75
2021/06/11 10:08:23;;;;;;;;;;;23.20;99.90;;;;;;5133898;28;19903;-74
2021/06/11 10:10:49;;;;;;;;;;;23.20;99.90;;;;;;5133157;28;19964;-74
2021/06/11 10:13:15;;;;;;;;;;;23.30;99.90;;;;;;5133801;28;19911;-75
2021/06/11 10:15:42;;;;;;;;;;;23.40;99.90;;;;;;5133807;28;19904;-75
2021/06/11 10:18:08;;;;;;;;;;;23.40;99.90;;;;;;5133393;28;19911;-76
2021/06/11 10:20:34;;;;;;;;;;;23.30;99.90;;;;;;5136515;27;19904;-75
2021/06/11 10:22:59;;;;;;;;;;;23.20;99.90;;;;;;5137501;27;20049;-75
2021/06/11 10:25:25;;;;;;;;;;;23.20;99.90;;;;;;5137063;27;19927;-75
2021/06/11 10:27:51;;;;;;;;;;;23.20;99.90;;;;;;5137563;27;19903;-75
2021/06/11 10:30:16;;;;;;;;;;;23.10;99.90;;;;;;5137535;27;19903;-74
2021/06/11 10:32:45;;;;;;;;;;;23.10;99.90;;;;;;5136593;27;19917;-73
2021/06/11 10:35:11;;;;;;;;;;;23.20;99.90;;;;;;5137403;27;19904;-74
2021/06/11 10:37:38;;;;;;;;;;;23.30;99.90;;;;;;5138046;27;19922;-74
2021/06/11 10:40:16;;;;;;;;;;;23.40;99.90;;;;;;5136772;27;19911;-74
2021/06/11 10:42:41;;;;;;;;;;;23.50;99.90;;;;;;5136552;27;19956;-74
2021/06/11 10:45:07;;;;;;;;;;;23.70;99.90;;;;;;5136374;27;19903;-76
2021/06/11 10:47:34;;;;;;;;;;;23.80;99.90;;;;;;5137454;27;19903;-75
2021/06/11 10:50:00;;;;;;;;;;;23.90;99.90;;;;;;5137316;27;19903;-75
2021/06/11 10:52:37;;;;;;;;;;;24.00;99.90;;;;;;5136077;27;19930;-76
2021/06/11 10:55:18;;;;;;;;;;;24.00;99.90;;;;;;5137292;27;19904;-76
2021/06/11 10:57:45;;;;;;;;;;;23.90;99.90;;;;;;5137011;27;19913;-75
2021/06/11 11:00:19;;;;;;;;;;;24.00;99.90;;;;;;5136335;27;19994;-76
2021/06/11 11:02:54;;;;;;;;;;;24.00;99.90;;;;;;5136968;27;19910;-73
2021/06/11 11:05:30;;;;;;;;;;;24.00;99.90;;;;;;5136711;27;19983;-73
2021/06/11 11:07:55;;;;;;;;;;;24.10;99.90;;;;;;5135955;27;19903;-74
2021/06/11 11:10:42;;;;;;;;;;;24.10;99.90;;;;;;5136878;27;20030;-74
2021/06/11 11:13:11;;;;;;;;;;;24.20;99.90;;;;;;5136649;27;19996;-74
2021/06/11 11:15:38;;;;;;;;;;;24.20;99.90;;;;;;5136494;27;19904;-74
2021/06/11 11:18:04;;;;;;;;;;;24.30;99.90;;;;;;5136569;27;19903;-74
2021/06/11 11:20:31;;;;;;;;;;;24.20;99.90;;;;;;5135885;27;19947;-74
2021/06/11 11:23:01;;;;;;;;;;;24.20;99.90;;;;;;5136436;27;19904;-74
2021/06/11 11:25:27;;;;;;;;;;;24.10;99.90;;;;;;5136559;27;19911;-75
2021/06/11 11:27:54;;;;;;;;;;;24.00;99.90;;;;;;5135826;27;19903;-75
2021/06/11 11:30:23;;;;;;;;;;;24.00;99.90;;;;;;5136062;27;19911;-75
2021/06/11 11:32:49;;;;;;;;;;;23.90;99.90;;;;;;5136085;27;19923;-75
2021/06/11 11:35:16;;;;;;;;;;;23.80;99.90;;;;;;5135623;27;20028;-75
2021/06/11 11:37:42;;;;;;;;;;;23.90;99.90;;;;;;5136088;27;19903;-76
2021/06/11 11:40:08;;;;;;;;;;;23.90;99.90;;;;;;5136443;27;19990;-74
2021/06/11 11:42:34;;;;;;;;;;;24.00;99.90;;;;;;5135514;27;19903;-75
2021/06/11 11:45:00;;;;;;;;;;;24.00;99.90;;;;;;5136276;27;19910;-73
2021/06/11 11:47:28;;;;;;;;;;;24.00;99.90;;;;;;5136220;27;20380;-74
2021/06/11 11:49:53;;;;;;;;;;;24.00;99.90;;;;;;5135959;27;19903;-74
2021/06/11 11:52:19;;;;;;;;;;;24.10;99.90;;;;;;5138093;27;20018;-74
2021/06/11 11:54:44;;;;;;;;;;;24.40;99.90;;;;;;5135975;27;19990;-75
2021/06/11 11:57:10;;;;;;;;;;;24.70;99.90;;;;;;5135003;27;19904;-75
2021/06/11 11:59:35;;;;;;;;;;;24.80;99.90;;;;;;5135652;27;19903;-75
2021/06/11 12:02:01;;;;;;;;;;;24.80;99.90;;;;;;5136710;27;19946;-76
2021/06/11 12:04:26;;;;;;;;;;;25.00;99.90;;;;;;5135389;27;19904;-75
2021/06/11 12:06:54;;;;;;;;;;;24.90;99.90;;;;;;5137822;27;19926;-75
2021/06/11 12:09:20;;;;;;;;;;;24.90;99.90;;;;;;5136478;27;19910;-74
2021/06/11 12:11:45;;;;;;;;;;;25.00;99.90;;;;;;5134518;27;19911;-74
2021/06/11 12:14:11;;;;;;;;;;;25.00;99.90;;;;;;5135800;27;19907;-74
2021/06/11 12:16:36;;;;;;;;;;;25.00;99.90;;;;;;5134512;27;20339;-75
2021/06/11 12:19:03;;;;;;;;;;;25.20;99.90;;;;;;5135507;27;19903;-75
2021/06/11 12:21:29;;;;;;;;;;;25.40;99.90;;;;;;5135921;27;19907;-76
2021/06/11 12:23:54;;;;;;;;;;;25.20;99.90;;;;;;5134510;27;20044;-75
2021/06/11 12:26:20;;;;;;;;;;;25.20;99.90;;;;;;5135185;27;19910;-75
2021/06/11 12:28:45;;;;;;;;;;;25.00;99.90;;;;;;5135136;27;19933;-75
2021/06/11 12:31:11;;;;;;;;;;;24.80;99.90;;;;;;5134281;27;19923;-75
2021/06/11 12:33:37;;;;;;;;;;;24.80;99.90;;;;;;5134866;27;20093;-75
2021/06/11 12:36:03;;;;;;;;;;;24.80;99.90;;;;;;5134966;27;19903;-75
2021/06/11 12:38:29;;;;;;;;;;;24.80;99.90;;;;;;5134382;27;19910;-75
2021/06/11 12:40:57;;;;;;;;;;;24.80;99.90;;;;;;5135151;27;19904;-75
2021/06/11 12:43:30;;;;;;;;;;;25.10;99.90;;;;;;5134209;27;20346;-75
2021/06/11 12:45:55;;;;;;;;;;;25.10;99.90;;;;;;5134566;27;19956;-75
2021/06/11 12:48:21;;;;;;;;;;;25.10;99.90;;;;;;5134934;27;20351;-75
2021/06/11 12:50:49;;;;;;;;;;;25.20;99.90;;;;;;5134468;27;19904;-75
2021/06/11 12:53:14;;;;;;;;;;;25.40;99.90;;;;;;5134139;27;20038;-75
2021/06/11 12:55:40;;;;;;;;;;;25.40;99.90;;;;;;5134861;27;20266;-75
2021/06/11 12:58:06;;;;;;;;;;;25.20;99.90;;;;;;5134658;27;19994;-75
2021/06/11 13:00:31;;;;;;;;;;;25.20;99.90;;;;;;5134276;27;19929;-75
2021/06/11 13:02:57;;;;;;;;;;;25.30;99.90;;;;;;5134626;27;19903;-75
2021/06/11 13:05:26;;;;;;;;;;;25.40;99.90;;;;;;5134682;27;19946;-75
2021/06/11 13:07:52;;;;;;;;;;;25.30;99.90;;;;;;5133939;27;19903;-75
2021/06/11 13:10:17;;;;;;;;;;;25.10;99.90;;;;;;5134519;27;20331;-75
2021/06/11 13:12:43;;;;;;;;;;;24.90;99.90;;;;;;5134318;27;19918;-74
2021/06/11 13:15:10;;;;;;;;;;;25.00;99.90;;;;;;5133589;27;20383;-75
2021/06/11 13:17:35;;;;;;;;;;;24.80;99.90;;;;;;5134431;27;19909;-75
2021/06/11 13:20:01;;;;;;;;;;;25.10;99.90;;;;;;5133550;27;19994;-74
2021/06/11 13:22:26;;;;;;;;;;;25.20;99.90;;;;;;5134387;27;20267;-75
2021/06/11 13:24:52;;;;;;;;;;;25.30;99.90;;;;;;5134240;27;19904;-75
2021/06/11 13:27:17;;;;;;;;;;;25.40;99.90;;;;;;5133356;27;19903;-75
2021/06/11 13:29:43;;;;;;;;;;;25.50;99.90;;;;;;5134224;27;19998;-76
2021/06/11 13:32:08;;;;;;;;;;;25.70;99.90;;;;;;5134365;27;19959;-74
2021/06/11 13:34:34;;;;;;;;;;;26.00;99.90;;;;;;5133520;27;20247;-74
2021/06/11 13:37:01;;;;;;;;;;;25.90;99.90;;;;;;5134208;27;19955;-75
2021/06/11 13:39:26;;;;;;;;;;;26.00;99.50;;;;;;5134283;28;19910;-75
2021/06/11 13:41:52;;;;;;;;;;;26.00;99.40;;;;;;5133224;28;20355;-74
2021/06/11 13:44:17;;;;;;;;;;;26.00;99.90;;;;;;5134173;28;19907;-75
2021/06/11 13:46:43;;;;;;;;;;;26.10;99.10;;;;;;5134040;28;19907;-76
2021/06/11 13:49:08;;;;;;;;;;;26.10;98.80;;;;;;5133296;28;19915;-75
2021/06/11 13:51:34;;;;;;;;;;;26.10;98.40;;;;;;5133530;28;20359;-74
2021/06/11 13:53:59;;;;;;;;;;;26.10;98.80;;;;;;5135554;27;19915;-75
2021/06/11 13:56:25;;;;;;;;;;;26.10;98.60;;;;;;5137430;27;19911;-75
2021/06/11 13:58:51;;;;;;;;;;;26.20;99.50;;;;;;5138449;27;19903;-75
2021/06/11 14:01:16;;;;;;;;;;;26.30;99.00;;;;;;5138688;27;19911;-75
2021/06/11 14:03:42;;;;;;;;;;;26.40;98.50;;;;;;5137293;27;19903;-75
2021/06/11 14:06:07;;;;;;;;;;;26.50;98.70;;;;;;5138087;27;19904;-74
2021/06/11 14:08:32;;;;;;;;;;;26.80;98.00;;;;;;5138066;27;19998;-74
2021/06/11 14:10:58;;;;;;;;;;;27.00;96.70;;;;;;5138763;27;19907;-75
2021/06/11 14:13:23;;;;;;;;;;;27.10;97.70;;;;;;5138189;27;20362;-75
2021/06/11 14:15:49;;;;;;;;;;;27.10;97.30;;;;;;5138880;27;19903;-75